sensor_id;sensor_type;location;lat;lon;timestamp;pressure;altitude;pressure_sealevel;temperature;humidity
9189;BME280;34313;50.780;6.084;2023-12-14T00:00:23;98573.22;;;8.14;100.00
9189;BME280;34313;50.780;6.084;2023-12-14T00:02:48;98584.31;;;8.05;100.00
9189;BME280;34313;50.780;6.084;2023-12-14T00:05:13;98584.38;;;8.03;100.00
9189;BME280;34313;50.780;6.084;2023-12-14T00:07:39;98586.94;;;8.05;100.00
9189;BME280;34313;50.780;6.084;2023-12-14T00:10:05;98590.84;;;7.98;100.00
9189;BME280;34313;50.780;6.084;2023-12-14T00:12:30;98604.72;;;8.00;100.00
9189;BME280;34313;50.780;6.084;2023-12-14T00:14:56;98602.94;;;8.00;100.00
9189;BME280;34313;50.780;6.084;2023-12-14T00:17:22;98602.28;;;7.97;100.00
9189;BME280;34313;50.780;6.084;2023-12-14T00:19:47;98605.09;;;7.93;100.00
9189;BME280;34313;50.780;6.084;2023-12-14T00:22:12;98611.38;;;8.05;100.00
9189;BME280;34313;50.780;6.084;2023-12-14T00:24:38;98616.44;;;8.08;100.00
9189;BME280;34313;50.780;6.084;2023-12-14T00:27:03;98612.59;;;8.00;100.00
9189;BME280;34313;50.780;6.084;2023-12-14T00:29:28;98618.78;;;7.99;100.00
9189;BME280;34313;50.780;6.084;2023-12-14T00:31:54;98635.75;;;8.07;100.00
9189;BME280;34313;50.780;6.084;2023-12-14T00:34:19;98642.22;;;8.02;100.00
9189;BME280;34313;50.780;6.084;2023-12-14T00:36:44;98639.88;;;7.97;100.00
9189;BME280;34313;50.780;6.084;2023-12-14T00:39:10;98648.47;;;7.99;100.00
9189;BME280;34313;50.780;6.084;2023-12-14T00:41:35;98652.06;;;7.98;100.00
9189;BME280;34313;50.780;6.084;2023-12-14T00:44:00;98660.03;;;7.97;100.00
9189;BME280;34313;50.780;6.084;2023-12-14T00:46:26;98664.13;;;8.01;100.00
9189;BME280;34313;50.780;6.084;2023-12-14T00:48:51;98658.97;;;7.99;100.00
9189;BME280;34313;50.780;6.084;2023-12-14T00:51:16;98662.56;;;7.98;100.00
9189;BME280;34313;50.780;6.084;2023-12-14T00:53:42;98674.63;;;8.01;100.00
9189;BME280;34313;50.780;6.084;2023-12-14T00:56:08;98671.66;;;8.07;100.00
9189;BME280;34313;50.780;6.084;2023-12-14T00:58:33;98677.81;;;8.06;100.00
9189;BME280;34313;50.780;6.084;2023-12-14T01:00:59;98690.94;;;8.06;100.00
9189;BME280;34313;50.780;6.084;2023-12-14T01:03:24;98692.06;;;8.02;100.00
9189;BME280;34313;50.780;6.084;2023-12-14T01:05:49;98693.94;;;8.00;100.00
9189;BME280;34313;50.780;6.084;2023-12-14T01:08:14;98697.97;;;8.05;100.00
9189;BME280;34313;50.780;6.084;2023-12-14T01:10:40;98699.38;;;8.11;100.00
9189;BME280;34313;50.780;6.084;2023-12-14T01:13:05;98700.88;;;8.15;100.00
9189;BME280;34313;50.780;6.084;2023-12-14T01:15:30;98705.47;;;8.11;100.00
9189;BME280;34313;50.780;6.084;2023-12-14T01:17:56;98720.47;;;8.09;100.00
9189;BME280;34313;50.780;6.084;2023-12-14T01:20:21;98722.00;;;8.13;100.00
9189;BME280;34313;50.780;6.084;2023-12-14T01:22:46;98729.38;;;8.07;100.00
9189;BME280;34313;50.780;6.084;2023-12-14T01:25:12;98730.97;;;8.09;100.00
9189;BME280;34313;50.780;6.084;2023-12-14T01:27:37;98736.50;;;8.05;100.00
9189;BME280;34313;50.780;6.084;2023-12-14T01:30:02;98744.56;;;8.02;100.00
9189;BME280;34313;50.780;6.084;2023-12-14T01:32:28;98745.38;;;8.02;100.00
9189;BME280;34313;50.780;6.084;2023-12-14T01:34:53;98745.38;;;8.02;100.00
9189;BME280;34313;50.780;6.084;2023-12-14T01:37:19;98752.81;;;8.10;100.00
9189;BME280;34313;50.780;6.084;2023-12-14T01:39:44;98759.91;;;8.08;100.00
9189;BME280;34313;50.780;6.084;2023-12-14T01:42:09;98753.19;;;8.04;100.00
9189;BME280;34313;50.780;6.084;2023-12-14T01:44:35;98769.75;;;8.04;100.00
9189;BME280;34313;50.780;6.084;2023-12-14T01:47:00;98772.84;;;7.97;100.00
9189;BME280;34313;50.780;6.084;2023-12-14T01:49:25;98773.78;;;7.95;100.00
9189;BME280;34313;50.780;6.084;2023-12-14T01:51:51;98773.59;;;7.99;100.00
9189;BME280;34313;50.780;6.084;2023-12-14T01:54:16;98783.09;;;8.01;100.00
9189;BME280;34313;50.780;6.084;2023-12-14T01:56:41;98784.34;;;7.94;100.00
9189;BME280;34313;50.780;6.084;2023-12-14T01:59:07;98785.88;;;7.98;100.00
9189;BME280;34313;50.780;6.084;2023-12-14T02:01:42;98794.31;;;8.03;100.00
9189;BME280;34313;50.780;6.084;2023-12-14T02:04:08;98792.94;;;8.12;100.00
9189;BME280;34313;50.780;6.084;2023-12-14T02:06:33;98793.13;;;8.09;100.00
9189;BME280;34313;50.780;6.084;2023-12-14T02:08:59;98799.13;;;8.11;100.00
9189;BME280;34313;50.780;6.084;2023-12-14T02:11:24;98804.44;;;8.09;100.00
9189;BME280;34313;50.780;6.084;2023-12-14T02:13:49;98809.44;;;8.14;100.00
9189;BME280;34313;50.780;6.084;2023-12-14T02:16:15;98808.47;;;8.15;100.00
9189;BME280;34313;50.780;6.084;2023-12-14T02:18:40;98812.72;;;8.18;100.00
9189;BME280;34313;50.780;6.084;2023-12-14T02:21:06;98825.00;;;8.17;100.00
9189;BME280;34313;50.780;6.084;2023-12-14T02:23:31;98820.03;;;8.12;100.00
9189;BME280;34313;50.780;6.084;2023-12-14T02:25:57;98828.47;;;8.18;100.00
9189;BME280;34313;50.780;6.084;2023-12-14T02:28:22;98833.91;;;8.14;100.00
9189;BME280;34313;50.780;6.084;2023-12-14T02:30:47;98831.19;;;8.16;100.00
9189;BME280;34313;50.780;6.084;2023-12-14T02:33:13;98843.38;;;8.17;100.00
9189;BME280;34313;50.780;6.084;2023-12-14T02:35:38;98846.75;;;8.19;100.00
9189;BME280;34313;50.780;6.084;2023-12-14T02:38:03;98853.00;;;8.17;100.00
9189;BME280;34313;50.780;6.084;2023-12-14T02:40:29;98854.56;;;8.21;100.00
9189;BME280;34313;50.780;6.084;2023-12-14T02:42:54;98860.06;;;8.16;100.00
9189;BME280;34313;50.780;6.084;2023-12-14T02:45:19;98874.88;;;8.17;100.00
9189;BME280;34313;50.780;6.084;2023-12-14T02:47:44;98869.53;;;8.19;100.00
9189;BME280;34313;50.780;6.084;2023-12-14T02:50:12;98890.25;;;8.23;100.00
9189;BME280;34313;50.780;6.084;2023-12-14T02:52:38;98886.22;;;8.18;100.00
9189;BME280;34313;50.780;6.084;2023-12-14T02:55:03;98894.81;;;8.05;100.00
9189;BME280;34313;50.780;6.084;2023-12-14T02:57:29;98898.28;;;8.06;100.00
9189;BME280;34313;50.780;6.084;2023-12-14T02:59:54;98899.63;;;7.97;100.00
9189;BME280;34313;50.780;6.084;2023-12-14T03:02:19;98909.25;;;7.82;100.00
9189;BME280;34313;50.780;6.084;2023-12-14T03:04:45;98919.66;;;7.84;100.00
9189;BME280;34313;50.780;6.084;2023-12-14T03:07:10;98918.97;;;7.80;100.00
9189;BME280;34313;50.780;6.084;2023-12-14T03:09:39;98923.28;;;7.81;100.00
9189;BME280;34313;50.780;6.084;2023-12-14T03:12:06;98931.41;;;7.76;100.00
9189;BME280;34313;50.780;6.084;2023-12-14T03:14:32;98933.34;;;7.73;100.00
9189;BME280;34313;50.780;6.084;2023-12-14T03:16:59;98946.56;;;7.71;100.00
9189;BME280;34313;50.780;6.084;2023-12-14T03:19:24;98950.88;;;7.72;100.00
9189;BME280;34313;50.780;6.084;2023-12-14T03:21:49;98950.19;;;7.69;100.00
9189;BME280;34313;50.780;6.084;2023-12-14T03:24:14;98950.28;;;7.67;100.00
9189;BME280;34313;50.780;6.084;2023-12-14T03:26:40;98950.63;;;7.61;100.00
9189;BME280;34313;50.780;6.084;2023-12-14T03:29:05;98950.34;;;7.66;100.00
9189;BME280;34313;50.780;6.084;2023-12-14T03:31:31;98956.19;;;7.55;100.00
9189;BME280;34313;50.780;6.084;2023-12-14T03:33:56;98960.00;;;7.49;100.00
9189;BME280;34313;50.780;6.084;2023-12-14T03:36:21;98955.19;;;7.42;100.00
9189;BME280;34313;50.780;6.084;2023-12-14T03:38:51;98964.41;;;7.49;100.00
9189;BME280;34313;50.780;6.084;2023-12-14T03:41:16;98957.63;;;7.45;100.00
9189;BME280;34313;50.780;6.084;2023-12-14T03:43:41;98964.41;;;7.49;100.00
9189;BME280;34313;50.780;6.084;2023-12-14T03:46:06;98966.09;;;7.50;100.00
9189;BME280;34313;50.780;6.084;2023-12-14T03:48:32;98978.28;;;7.51;100.00
9189;BME280;34313;50.780;6.084;2023-12-14T03:51:02;98985.81;;;7.57;100.00
9189;BME280;34313;50.780;6.084;2023-12-14T03:53:28;98988.19;;;7.62;100.00
9189;BME280;34313;50.780;6.084;2023-12-14T03:55:54;98990.13;;;7.58;100.00
9189;BME280;34313;50.780;6.084;2023-12-14T03:58:19;98999.00;;;7.55;100.00
9189;BME280;34313;50.780;6.084;2023-12-14T04:00:45;99005.50;;;7.48;100.00
9189;BME280;34313;50.780;6.084;2023-12-14T04:03:10;99007.53;;;7.43;100.00
9189;BME280;34313;50.780;6.084;2023-12-14T04:05:35;99003.88;;;7.30;100.00
9189;BME280;34313;50.780;6.084;2023-12-14T04:08:01;99018.50;;;7.34;100.00
9189;BME280;34313;50.780;6.084;2023-12-14T04:10:26;99013.94;;;7.37;100.00
9189;BME280;34313;50.780;6.084;2023-12-14T04:12:51;99017.28;;;7.24;100.00
9189;BME280;34313;50.780;6.084;2023-12-14T04:15:17;99016.75;;;7.17;100.00
9189;BME280;34313;50.780;6.084;2023-12-14T04:17:42;99031.63;;;7.16;100.00
9189;BME280;34313;50.780;6.084;2023-12-14T04:20:08;99029.66;;;7.04;100.00
9189;BME280;34313;50.780;6.084;2023-12-14T04:22:33;99021.03;;;7.02;100.00
9189;BME280;34313;50.780;6.084;2023-12-14T04:24:58;99042.00;;;7.02;100.00
9189;BME280;34313;50.780;6.084;2023-12-14T04:27:24;99039.66;;;6.96;100.00
9189;BME280;34313;50.780;6.084;2023-12-14T04:29:53;99047.00;;;6.89;100.00
9189;BME280;34313;50.780;6.084;2023-12-14T04:32:18;99047.00;;;6.89;100.00
9189;BME280;34313;50.780;6.084;2023-12-14T04:34:44;99052.69;;;6.97;100.00
9189;BME280;34313;50.780;6.084;2023-12-14T04:37:09;99050.88;;;6.99;100.00
9189;BME280;34313;50.780;6.084;2023-12-14T04:39:34;99059.88;;;6.94;100.00
9189;BME280;34313;50.780;6.084;2023-12-14T04:42:00;99068.88;;;7.06;100.00
9189;BME280;34313;50.780;6.084;2023-12-14T04:44:25;99063.19;;;6.97;100.00
9189;BME280;34313;50.780;6.084;2023-12-14T04:46:50;99073.91;;;6.93;100.00
9189;BME280;34313;50.780;6.084;2023-12-14T04:49:16;99080.69;;;6.97;100.00
9189;BME280;34313;50.780;6.084;2023-12-14T04:51:42;99076.75;;;6.88;100.00
9189;BME280;34313;50.780;6.084;2023-12-14T04:54:08;99087.16;;;6.90;100.00
9189;BME280;34313;50.780;6.084;2023-12-14T04:56:33;99066.34;;;6.87;100.00
9189;BME280;34313;50.780;6.084;2023-12-14T04:58:58;99084.38;;;6.93;100.00
9189;BME280;34313;50.780;6.084;2023-12-14T05:01:24;99090.69;;;6.89;100.00
9189;BME280;34313;50.780;6.084;2023-12-14T05:03:52;99087.00;;;6.93;100.00
9189;BME280;34313;50.780;6.084;2023-12-14T05:06:17;99099.34;;;6.91;100.00
9189;BME280;34313;50.780;6.084;2023-12-14T05:08:42;99102.31;;;6.83;100.00
9189;BME280;34313;50.780;6.084;2023-12-14T05:11:08;99110.94;;;6.85;100.00
9189;BME280;34313;50.780;6.084;2023-12-14T05:13:33;99112.16;;;6.78;100.00
9189;BME280;34313;50.780;6.084;2023-12-14T05:15:58;99108.66;;;6.79;100.00
9189;BME280;34313;50.780;6.084;2023-12-14T05:18:24;99121.75;;;6.79;100.00
9189;BME280;34313;50.780;6.084;2023-12-14T05:20:50;99117.47;;;6.76;100.00
9189;BME280;34313;50.780;6.084;2023-12-14T05:23:15;99118.81;;;6.85;100.00
9189;BME280;34313;50.780;6.084;2023-12-14T05:25:41;99130.28;;;6.82;100.00
9189;BME280;34313;50.780;6.084;2023-12-14T05:28:06;99127.81;;;6.79;100.00
9189;BME280;34313;50.780;6.084;2023-12-14T05:30:31;99136.31;;;6.85;100.00
9189;BME280;34313;50.780;6.084;2023-12-14T05:32:57;99130.50;;;6.78;100.00
9189;BME280;34313;50.780;6.084;2023-12-14T05:35:22;99142.84;;;6.76;100.00
9189;BME280;34313;50.780;6.084;2023-12-14T05:37:48;99154.50;;;6.88;100.00
9189;BME280;34313;50.780;6.084;2023-12-14T05:40:13;99162.22;;;6.91;100.00
9189;BME280;34313;50.780;6.084;2023-12-14T05:42:39;99170.22;;;6.88;100.00
9189;BME280;34313;50.780;6.084;2023-12-14T05:45:05;99173.19;;;6.80;100.00
9189;BME280;34313;50.780;6.084;2023-12-14T05:47:31;99173.38;;;6.58;100.00
9189;BME280;34313;50.780;6.084;2023-12-14T05:49:58;99186.94;;;6.66;100.00
9189;BME280;34313;50.780;6.084;2023-12-14T05:52:24;99187.69;;;6.51;100.00
9189;BME280;34313;50.780;6.084;2023-12-14T05:54:49;99200.25;;;6.42;100.00
9189;BME280;34313;50.780;6.084;2023-12-14T05:57:15;99194.25;;;6.40;100.00
9189;BME280;34313;50.780;6.084;2023-12-14T05:59:40;99198.00;;;6.35;100.00
9189;BME280;34313;50.780;6.084;2023-12-14T06:02:05;99205.94;;;6.33;100.00
9189;BME280;34313;50.780;6.084;2023-12-14T06:04:31;99210.16;;;6.36;100.00
9189;BME280;34313;50.780;6.084;2023-12-14T06:06:57;99211.81;;;6.38;100.00
9189;BME280;34313;50.780;6.084;2023-12-14T06:09:23;99221.97;;;6.44;100.00
9189;BME280;34313;50.780;6.084;2023-12-14T06:11:54;99228.16;;;6.43;100.00
9189;BME280;34313;50.780;6.084;2023-12-14T06:14:19;99232.38;;;6.46;100.00
9189;BME280;34313;50.780;6.084;2023-12-14T06:16:45;99240.03;;;6.51;100.00
9189;BME280;34313;50.780;6.084;2023-12-14T06:19:11;99243.13;;;6.59;100.00
9189;BME280;34313;50.780;6.084;2023-12-14T06:21:36;99244.28;;;6.53;100.00
9189;BME280;34313;50.780;6.084;2023-12-14T06:24:01;99256.84;;;6.45;100.00
9189;BME280;34313;50.780;6.084;2023-12-14T06:26:27;99264.81;;;6.43;100.00
9189;BME280;34313;50.780;6.084;2023-12-14T06:28:53;99273.31;;;6.49;100.00
9189;BME280;34313;50.780;6.084;2023-12-14T06:31:18;99274.06;;;6.51;100.00
9189;BME280;34313;50.780;6.084;2023-12-14T06:33:48;99275.91;;;6.49;100.00
9189;BME280;34313;50.780;6.084;2023-12-14T06:36:18;99279.72;;;6.41;100.00
9189;BME280;34313;50.780;6.084;2023-12-14T06:38:43;99285.53;;;6.48;100.00
9189;BME280;34313;50.780;6.084;2023-12-14T06:41:18;99273.34;;;6.28;100.00
9189;BME280;34313;50.780;6.084;2023-12-14T06:43:43;99285.22;;;6.35;100.00
9189;BME280;34313;50.780;6.084;2023-12-14T06:46:08;99281.84;;;6.33;100.00
9189;BME280;34313;50.780;6.084;2023-12-14T06:48:34;99292.78;;;6.41;100.00
9189;BME280;34313;50.780;6.084;2023-12-14T06:50:59;99283.84;;;6.47;100.00
9189;BME280;34313;50.780;6.084;2023-12-14T06:53:24;99297.22;;;6.60;100.00
9189;BME280;34313;50.780;6.084;2023-12-14T06:55:50;99300.88;;;6.37;100.00
9189;BME280;34313;50.780;6.084;2023-12-14T06:58:17;99299.63;;;6.46;100.00
9189;BME280;34313;50.780;6.084;2023-12-14T07:00:42;99313.53;;;6.46;100.00
9189;BME280;34313;50.780;6.084;2023-12-14T07:03:07;99326.34;;;6.33;100.00
9189;BME280;34313;50.780;6.084;2023-12-14T07:05:33;99332.94;;;6.42;100.00
9189;BME280;34313;50.780;6.084;2023-12-14T07:07:58;99336.13;;;6.49;100.00
9189;BME280;34313;50.780;6.084;2023-12-14T07:10:24;99346.09;;;6.40;100.00
9189;BME280;34313;50.780;6.084;2023-12-14T07:12:49;99358.25;;;6.41;100.00
9189;BME280;34313;50.780;6.084;2023-12-14T07:15:14;99359.75;;;6.47;100.00
9189;BME280;34313;50.780;6.084;2023-12-14T07:17:39;99351.56;;;6.34;100.00
9189;BME280;34313;50.780;6.084;2023-12-14T07:20:05;99370.56;;;6.39;100.00
9189;BME280;34313;50.780;6.084;2023-12-14T07:22:31;99378.88;;;6.29;100.00
9189;BME280;34313;50.780;6.084;2023-12-14T07:24:56;99384.28;;;6.24;100.00
9189;BME280;34313;50.780;6.084;2023-12-14T07:27:22;99386.13;;;6.22;100.00
9189;BME280;34313;50.780;6.084;2023-12-14T07:29:47;99396.81;;;6.17;100.00
9189;BME280;34313;50.780;6.084;2023-12-14T07:32:12;99397.88;;;6.12;100.00
9189;BME280;34313;50.780;6.084;2023-12-14T07:34:38;99389.66;;;6.00;100.00
9189;BME280;34313;50.780;6.084;2023-12-14T07:37:03;99404.22;;;6.06;100.00
9189;BME280;34313;50.780;6.084;2023-12-14T07:39:28;99408.50;;;5.86;100.00
9189;BME280;34313;50.780;6.084;2023-12-14T07:41:53;99409.53;;;5.82;100.00
9189;BME280;34313;50.780;6.084;2023-12-14T07:44:19;99409.72;;;5.78;100.00
9189;BME280;34313;50.780;6.084;2023-12-14T07:46:45;99416.72;;;5.77;100.00
9189;BME280;34313;50.780;6.084;2023-12-14T07:49:10;99413.66;;;5.66;100.00
9189;BME280;34313;50.780;6.084;2023-12-14T07:51:35;99426.19;;;5.80;100.00
9189;BME280;34313;50.780;6.084;2023-12-14T07:54:01;99430.94;;;5.70;100.00
9189;BME280;34313;50.780;6.084;2023-12-14T07:56:28;99444.63;;;5.77;100.00
9189;BME280;34313;50.780;6.084;2023-12-14T07:58:54;99439.47;;;5.75;100.00
9189;BME280;34313;50.780;6.084;2023-12-14T08:01:19;99441.47;;;5.68;100.00
9189;BME280;34313;50.780;6.084;2023-12-14T08:03:45;99462.53;;;5.64;100.00
9189;BME280;34313;50.780;6.084;2023-12-14T08:06:11;99453.59;;;5.69;100.00
9189;BME280;34313;50.780;6.084;2023-12-14T08:08:36;99463.16;;;5.71;100.00
9189;BME280;34313;50.780;6.084;2023-12-14T08:11:03;99464.56;;;5.79;100.00
9189;BME280;34313;50.780;6.084;2023-12-14T08:13:29;99481.66;;;5.88;100.00
9189;BME280;34313;50.780;6.084;2023-12-14T08:15:54;99483.25;;;5.92;100.00
9189;BME280;34313;50.780;6.084;2023-12-14T08:18:20;99490.47;;;5.85;100.00
9189;BME280;34313;50.780;6.084;2023-12-14T08:20:45;99499.63;;;5.75;100.00
9189;BME280;34313;50.780;6.084;2023-12-14T08:23:10;99491.25;;;5.65;100.00
9189;BME280;34313;50.780;6.084;2023-12-14T08:25:36;99503.38;;;5.68;100.00
9189;BME280;34313;50.780;6.084;2023-12-14T08:28:01;99510.59;;;5.61;100.00
9189;BME280;34313;50.780;6.084;2023-12-14T08:30:26;99505.22;;;5.64;100.00
9189;BME280;34313;50.780;6.084;2023-12-14T08:32:51;99512.06;;;5.68;100.00
9189;BME280;34313;50.780;6.084;2023-12-14T08:35:17;99519.56;;;5.78;100.00
9189;BME280;34313;50.780;6.084;2023-12-14T08:37:42;99527.22;;;5.82;100.00
9189;BME280;34313;50.780;6.084;2023-12-14T08:40:09;99515.25;;;5.77;100.00
9189;BME280;34313;50.780;6.084;2023-12-14T08:42:34;99528.19;;;5.80;100.00
9189;BME280;34313;50.780;6.084;2023-12-14T08:45:00;99528.25;;;5.78;100.00
9189;BME280;34313;50.780;6.084;2023-12-14T08:47:25;99527.66;;;5.94;100.00
9189;BME280;34313;50.780;6.084;2023-12-14T08:49:51;99524.25;;;5.92;100.00
9189;BME280;34313;50.780;6.084;2023-12-14T08:52:17;99543.66;;;5.86;100.00
9189;BME280;34313;50.780;6.084;2023-12-14T08:54:42;99551.97;;;5.97;100.00
9189;BME280;34313;50.780;6.084;2023-12-14T08:57:11;99556.69;;;5.87;100.00
9189;BME280;34313;50.780;6.084;2023-12-14T08:59:36;99564.47;;;5.89;100.00
9189;BME280;34313;50.780;6.084;2023-12-14T09:02:01;99574.69;;;5.95;100.00
9189;BME280;34313;50.780;6.084;2023-12-14T09:04:27;99571.00;;;6.01;100.00
9189;BME280;34313;50.780;6.084;2023-12-14T09:06:53;99572.63;;;6.05;100.00
9189;BME280;34313;50.780;6.084;2023-12-14T09:09:18;99573.47;;;6.05;100.00
9189;BME280;34313;50.780;6.084;2023-12-14T09:11:44;99584.41;;;6.15;100.00
9189;BME280;34313;50.780;6.084;2023-12-14T09:14:09;99573.78;;;6.20;100.00
9189;BME280;34313;50.780;6.084;2023-12-14T09:16:35;99593.56;;;6.27;100.00
9189;BME280;34313;50.780;6.084;2023-12-14T09:19:00;99591.66;;;6.31;100.00
9189;BME280;34313;50.780;6.084;2023-12-14T09:21:25;99597.34;;;6.42;100.00
9189;BME280;34313;50.780;6.084;2023-12-14T09:23:51;99601.25;;;6.32;100.00
9189;BME280;34313;50.780;6.084;2023-12-14T09:26:18;99596.84;;;6.32;100.00
9189;BME280;34313;50.780;6.084;2023-12-14T09:28:44;99603.91;;;6.30;100.00
9189;BME280;34313;50.780;6.084;2023-12-14T09:31:09;99605.63;;;6.31;100.00
9189;BME280;34313;50.780;6.084;2023-12-14T09:33:34;99600.41;;;6.31;100.00
9189;BME280;34313;50.780;6.084;2023-12-14T09:36:00;99603.75;;;6.35;100.00
9189;BME280;34313;50.780;6.084;2023-12-14T09:38:26;99607.16;;;6.37;100.00
9189;BME280;34313;50.780;6.084;2023-12-14T09:40:51;99629.84;;;6.36;100.00
9189;BME280;34313;50.780;6.084;2023-12-14T09:43:16;99633.56;;;6.31;100.00
9189;BME280;34313;50.780;6.084;2023-12-14T09:45:42;99633.59;;;6.29;100.00
9189;BME280;34313;50.780;6.084;2023-12-14T09:48:10;99642.75;;;6.41;100.00
9189;BME280;34313;50.780;6.084;2023-12-14T09:50:39;99643.75;;;6.38;100.00
9189;BME280;34313;50.780;6.084;2023-12-14T09:53:05;99651.75;;;6.34;100.00
9189;BME280;34313;50.780;6.084;2023-12-14T09:55:31;99661.59;;;6.27;100.00
9189;BME280;34313;50.780;6.084;2023-12-14T09:57:56;99663.38;;;6.27;100.00
9189;BME280;34313;50.780;6.084;2023-12-14T10:00:51;99671.44;;;6.20;100.00
9189;BME280;34313;50.780;6.084;2023-12-14T10:03:24;99677.66;;;6.18;100.00
9189;BME280;34313;50.780;6.084;2023-12-14T10:05:52;99672.66;;;6.12;100.00
9189;BME280;34313;50.780;6.084;2023-12-14T10:08:18;99671.06;;;6.08;100.00
9189;BME280;34313;50.780;6.084;2023-12-14T10:10:44;99681.94;;;5.95;100.00
9189;BME280;34313;50.780;6.084;2023-12-14T10:13:10;99677.34;;;6.03;100.00
9189;BME280;34313;50.780;6.084;2023-12-14T10:15:42;99677.34;;;6.03;100.00
9189;BME280;34313;50.780;6.084;2023-12-14T10:18:08;99681.69;;;6.03;100.00
9189;BME280;34313;50.780;6.084;2023-12-14T10:20:34;99689.69;;;6.00;100.00
9189;BME280;34313;50.780;6.084;2023-12-14T10:22:59;99685.47;;;5.94;100.00
9189;BME280;34313;50.780;6.084;2023-12-14T10:25:24;99687.13;;;5.98;100.00
9189;BME280;34313;50.780;6.084;2023-12-14T10:27:51;99701.56;;;6.09;100.00
9189;BME280;34313;50.780;6.084;2023-12-14T10:30:19;99698.03;;;6.10;100.00
9189;BME280;34313;50.780;6.084;2023-12-14T10:32:48;99709.88;;;6.20;100.00
9189;BME280;34313;50.780;6.084;2023-12-14T10:35:14;99709.06;;;6.18;100.00
9189;BME280;34313;50.780;6.084;2023-12-14T10:37:42;99705.25;;;6.27;100.00
9189;BME280;34313;50.780;6.084;2023-12-14T10:40:09;99714.47;;;6.37;100.00
9189;BME280;34313;50.780;6.084;2023-12-14T10:42:36;99722.28;;;6.38;100.00
9189;BME280;34313;50.780;6.084;2023-12-14T10:45:02;99722.44;;;6.34;100.00
9189;BME280;34313;50.780;6.084;2023-12-14T10:47:28;99727.84;;;6.29;100.00
9189;BME280;34313;50.780;6.084;2023-12-14T10:49:54;99731.94;;;6.36;100.00
9189;BME280;34313;50.780;6.084;2023-12-14T10:52:23;99726.78;;;6.35;100.00
9189;BME280;34313;50.780;6.084;2023-12-14T10:54:56;99739.78;;;6.36;100.00
9189;BME280;34313;50.780;6.084;2023-12-14T10:57:23;99734.34;;;6.19;100.00
9189;BME280;34313;50.780;6.084;2023-12-14T10:59:49;99737.75;;;6.21;100.00
9189;BME280;34313;50.780;6.084;2023-12-14T11:02:14;99739.13;;;6.31;100.00
9189;BME280;34313;50.780;6.084;2023-12-14T11:04:57;99743.97;;;6.42;100.00
9189;BME280;34313;50.780;6.084;2023-12-14T11:10:08;99745.19;;;6.55;100.00
9189;BME280;34313;50.780;6.084;2023-12-14T11:12:40;99743.31;;;6.59;100.00
9189;BME280;34313;50.780;6.084;2023-12-14T11:15:19;99757.59;;;6.74;100.00
9189;BME280;34313;50.780;6.084;2023-12-14T11:25:51;99765.41;;;6.97;100.00
9189;BME280;34313;50.780;6.084;2023-12-14T11:28:18;99768.66;;;7.04;100.00
9189;BME280;34313;50.780;6.084;2023-12-14T11:30:44;99771.63;;;6.95;100.00
9189;BME280;34313;50.780;6.084;2023-12-14T11:33:13;99772.44;;;6.97;100.00
9189;BME280;34313;50.780;6.084;2023-12-14T11:35:39;99783.63;;;7.00;100.00
9189;BME280;34313;50.780;6.084;2023-12-14T11:38:05;99781.00;;;7.00;100.00
9189;BME280;34313;50.780;6.084;2023-12-14T11:40:38;99785.31;;;6.79;100.00
9189;BME280;34313;50.780;6.084;2023-12-14T11:43:04;99785.69;;;6.70;100.00
9189;BME280;34313;50.780;6.084;2023-12-14T11:45:34;99783.88;;;6.49;100.00
9189;BME280;34313;50.780;6.084;2023-12-14T11:48:00;99791.09;;;6.42;100.00
9189;BME280;34313;50.780;6.084;2023-12-14T11:50:27;99783.28;;;6.40;100.00
9189;BME280;34313;50.780;6.084;2023-12-14T11:52:52;99787.34;;;6.49;100.00
9189;BME280;34313;50.780;6.084;2023-12-14T11:55:18;99786.81;;;6.63;100.00
9189;BME280;34313;50.780;6.084;2023-12-14T11:57:46;99783.78;;;6.74;100.00
9189;BME280;34313;50.780;6.084;2023-12-14T12:00:13;99788.41;;;6.91;100.00
9189;BME280;34313;50.780;6.084;2023-12-14T12:02:39;99794.84;;;7.04;100.00
9189;BME280;34313;50.780;6.084;2023-12-14T12:05:09;99787.09;;;7.01;100.00
9189;BME280;34313;50.780;6.084;2023-12-14T12:07:38;99793.03;;;7.06;100.00
9189;BME280;34313;50.780;6.084;2023-12-14T12:10:05;99788.72;;;7.05;100.00
9189;BME280;34313;50.780;6.084;2023-12-14T12:12:33;99784.63;;;6.98;100.00
9189;BME280;34313;50.780;6.084;2023-12-14T12:14:59;99780.19;;;7.00;100.00
9189;BME280;34313;50.780;6.084;2023-12-14T12:17:24;99797.38;;;7.07;100.00
9189;BME280;34313;50.780;6.084;2023-12-14T12:19:49;99794.06;;;7.02;100.00
9189;BME280;34313;50.780;6.084;2023-12-14T12:22:15;99786.38;;;6.97;100.00
9189;BME280;34313;50.780;6.084;2023-12-14T12:24:40;99803.97;;;6.94;100.00
9189;BME280;34313;50.780;6.084;2023-12-14T12:27:05;99804.84;;;6.94;100.00
9189;BME280;34313;50.780;6.084;2023-12-14T12:29:31;99798.22;;;7.08;100.00
9189;BME280;34313;50.780;6.084;2023-12-14T12:31:56;99797.25;;;7.10;100.00
9189;BME280;34313;50.780;6.084;2023-12-14T12:34:22;99810.66;;;7.25;100.00
9189;BME280;34313;50.780;6.084;2023-12-14T12:36:48;99808.16;;;7.22;100.00
9189;BME280;34313;50.780;6.084;2023-12-14T12:39:14;99820.22;;;7.26;100.00
9189;BME280;34313;50.780;6.084;2023-12-14T12:41:39;99810.78;;;7.22;100.00
9189;BME280;34313;50.780;6.084;2023-12-14T12:44:05;99826.28;;;7.28;100.00
9189;BME280;34313;50.780;6.084;2023-12-14T12:46:34;99833.31;;;7.26;100.00
9189;BME280;34313;50.780;6.084;2023-12-14T12:49:04;99830.28;;;7.14;100.00
9189;BME280;34313;50.780;6.084;2023-12-14T12:51:31;99838.25;;;7.11;100.00
9189;BME280;34313;50.780;6.084;2023-12-14T12:53:59;99829.78;;;7.05;100.00
9189;BME280;34313;50.780;6.084;2023-12-14T12:56:26;99824.41;;;6.86;100.00
9189;BME280;34313;50.780;6.084;2023-12-14T12:58:53;99837.88;;;6.51;100.00
9189;BME280;34313;50.780;6.084;2023-12-14T13:01:22;99841.41;;;6.50;100.00
9189;BME280;34313;50.780;6.084;2023-12-14T13:03:53;99831.47;;;6.60;100.00
9189;BME280;34313;50.780;6.084;2023-12-14T13:06:20;99841.81;;;6.63;100.00
9189;BME280;34313;50.780;6.084;2023-12-14T13:08:45;99842.22;;;6.76;100.00
9189;BME280;34313;50.780;6.084;2023-12-14T13:11:11;99842.97;;;6.79;100.00
9189;BME280;34313;50.780;6.084;2023-12-14T13:13:36;99837.66;;;6.81;100.00